Mahnomen, MN

5:39 AM CDT on April 26, 2017 (GMT -0500)
Gunderson Farm | | Change Station
Active Advisory: Winter Weather Advisory

Elev 1207 ft 47.46 °N, 96.04 °W | Updated 43 seconds ago

Snow
Snow
28.4 °F
Feels Like 21 °F
N
6.7
Wind Variable Wind from NE
Gusts 7.4 mph

Today
High -- | Low -- °F
--% Chance of Precip.
Yesterday
High -- | Low -- °F
Precip. -- in
Pressure 29.75 in
Visibility 7.0 miles
Clouds Overcast 1000 ft
Windchill 21 °F
Dew Point 26 °F
Humidity 90%
Rainfall 0.00 in
Snow Depth Not available.
6:15 AM 8:28 PM
Waning Crescent, 0% visible
METAR KFSE 261034Z AUTO 03014G19KT 7SM UP OVC010 M03/M04 A2975 RMK AO2
Pressure 29.75 in
Visibility 7.0 miles
Clouds Overcast 1000 ft
Windchill 21 °F
Dew Point 26 °F
Humidity 90%
Rainfall 0.00 in
Snow Depth Not available.
6:15 AM 8:28 PM
Waning Crescent, 0% visible
METAR KFSE 261034Z AUTO 03014G19KT 7SM UP OVC010 M03/M04 A2975 RMK AO2

Get Your Daily Forecast Email!

Thanks for signing up!

Be on the lookout for a verification email in your inbox.

You'll start receiving severe weather alerts in your inbox..

×

10-Day Weather Forecast

Almanac

Astronomy

Apr. 26, 2017 Rise Set
Actual Time
Civil Twilight
Nautical Twilight
Astronomical Twilight
Moon
Length of Visible Light
Length of Day
Tomorrow will be .
, % of the Moon is Illuminated

Today's Extremes

State Highs State Lows

Community

WunderPhotos

WunderBlog® & News

Nearby

Air Quality

  Air Quality AQ Index Pollutant
Not available.

Snow Depth

Station Depth Elevation

Earthquake Activity

City Distance Mag. Time & Date
Minimum magnitude displayed is 2.5.

Coastal Water Temperatures

Place Temperature

Stations

Nearby Weather Stations

Station Location Temp. Windchill Dew Point Humidity Wind Precip. Elev Updated Type
                   

Watches & Warnings

Winter Weather Advisory
Issued: 3:49 AM CDT Apr. 26, 2017 – National Weather Service

... Winter Weather Advisory remains in effect until 7 PM CDT this
evening...

* timing... expect a wintry mix to continue, diminishing around 7
PM.

* Precipitation rates... the heaviest snowfall rates will occur
between 1 PM and 7 PM this afternoon.

* Snow and ice accumulations... additional snow and sleet
accumulations of 2 to 4 inches and ice accumulations of a
light icing are expected.

* Winds / visibilities... look for reduced visibilities at times.

* Impacts... the wintry mix will result in difficult travel
conditions.

Precautionary/preparedness actions...

A Winter Weather Advisory means that periods of snow, sleet or
freezing rain will cause travel difficulties. Be prepared for
slippery roads and limited visibilities, and use caution while
driving. The latest Road conditions for the state you are calling
from can be obtained by calling 5 1 1.